Mindenmines, Missouri
Current Conditions -  °F | °C
As of 2:35 AM on Friday 31 Oct 2014 (Local Time) from KPTS Reporting Station
Clear Clear  
Wind Chill: 51°   Ceiling: Unl
Heat Index: 51°   Visibility: 10mi
Dew Point: 42°   Wind: 7mph
Humidity: 72%   Direction: 360°N
Pressure: 30.21"   Gusts: NA
Location:  37.47°N, 94.59°W
Report Text: KPTS 310735Z AUTO 36006KT 10SM CLR 11/06 A3021 RMK AO2 T01050056
Loading
Personal Weather Stations






























Interactive Weather Map
Tropical Storm Tracking
New forecast layout! Learn more

10-Day Weather Forecast

Advertisements
Track Severe Weather on mobile